createdAt,value
2023-03-11T00:00:23.593Z,-5.23
2023-03-11T00:02:52.719Z,-5.18
2023-03-11T00:05:25.810Z,-5.11
2023-03-11T00:07:53.238Z,-5.23
2023-03-11T00:10:27.393Z,-5.78
2023-03-11T00:12:55.295Z,-5.24
2023-03-11T00:15:22.044Z,-6.25
2023-03-11T00:17:49.691Z,-5.53
2023-03-11T00:20:23.061Z,-5.56
2023-03-11T00:22:51.285Z,-6.08
2023-03-11T00:25:19.740Z,-5.51
2023-03-11T00:27:46.631Z,-6.30
2023-03-11T00:30:15.635Z,-6.47
2023-03-11T00:32:42.887Z,-7.11
2023-03-11T00:35:14.243Z,-6.82
2023-03-11T00:37:40.901Z,-5.88
2023-03-11T00:40:12.164Z,-6.00
2023-03-11T00:42:38.854Z,-6.50
2023-03-11T00:45:06.165Z,-6.53
2023-03-11T00:47:32.835Z,-7.50
2023-03-11T00:49:59.838Z,-7.02
2023-03-11T00:52:26.762Z,-7.81
2023-03-11T00:54:53.528Z,-7.11
2023-03-11T00:57:20.600Z,-7.10
2023-03-11T00:59:47.283Z,-6.85
2023-03-11T01:02:14.065Z,-6.75
2023-03-11T01:04:40.803Z,-6.88
2023-03-11T01:07:07.549Z,-7.04
2023-03-11T01:09:34.355Z,-8.03
2023-03-11T01:12:01.000Z,-6.36
2023-03-11T01:14:28.610Z,-6.98
2023-03-11T01:16:55.644Z,-6.66
2023-03-11T01:19:22.322Z,-6.21
2023-03-11T01:21:49.225Z,-6.25
2023-03-11T01:24:15.846Z,-7.00
2023-03-11T01:26:43.195Z,-6.67
2023-03-11T01:29:09.809Z,-7.25
2023-03-11T01:31:36.549Z,-7.56
2023-03-11T01:34:03.249Z,-6.77
2023-03-11T01:36:30.130Z,-6.88
2023-03-11T01:38:57.566Z,-7.63
2023-03-11T01:41:24.375Z,-7.10
2023-03-11T01:43:56.728Z,-7.62
2023-03-11T01:46:28.241Z,-7.40
2023-03-11T01:49:01.232Z,-6.49
2023-03-11T01:51:40.645Z,-7.36
2023-03-11T01:54:25.554Z,-6.61
2023-03-11T01:56:53.136Z,-6.84
2023-03-11T01:59:24.199Z,-7.15
2023-03-11T02:01:59.525Z,-7.63
2023-03-11T02:04:28.623Z,-6.45
2023-03-11T02:06:58.675Z,-6.65
2023-03-11T02:09:27.098Z,-7.12
2023-03-11T02:11:54.395Z,-7.21
2023-03-11T02:14:21.686Z,-7.49
2023-03-11T02:16:48.369Z,-7.31
2023-03-11T02:19:32.532Z,-6.56
2023-03-11T02:21:59.457Z,-7.07
2023-03-11T02:24:35.743Z,-7.18
2023-03-11T02:27:12.156Z,-8.36
2023-03-11T02:29:39.486Z,-6.87
2023-03-11T02:32:08.869Z,-7.75
2023-03-11T02:34:39.836Z,-7.25
2023-03-11T02:37:10.393Z,-8.90
2023-03-11T02:39:42.930Z,-7.40
2023-03-11T02:42:22.135Z,-7.19
2023-03-11T02:45:10.161Z,-7.09
2023-03-11T02:47:38.922Z,-7.24
2023-03-11T02:50:10.817Z,-7.22
2023-03-11T02:52:38.057Z,-7.23
2023-03-11T02:55:06.047Z,-7.54
2023-03-11T02:57:34.068Z,-7.73
2023-03-11T03:00:06.638Z,-7.95
2023-03-11T03:02:33.827Z,-7.51
2023-03-11T03:05:00.935Z,-7.28
2023-03-11T03:07:27.772Z,-9.26
2023-03-11T03:09:55.392Z,-10.23
2023-03-11T03:12:22.421Z,-8.33
2023-03-11T03:14:49.164Z,-7.46
2023-03-11T03:17:17.099Z,-7.87
2023-03-11T03:19:46.757Z,-8.19
2023-03-11T03:22:13.941Z,-7.41
2023-03-11T03:24:41.177Z,-8.73
2023-03-11T03:27:07.951Z,-7.98
2023-03-11T03:29:34.733Z,-8.46
2023-03-11T03:32:01.446Z,-8.14
2023-03-11T03:34:28.300Z,-9.07
2023-03-11T03:36:55.020Z,-8.71
2023-03-11T03:39:21.633Z,-7.77
2023-03-11T03:41:50.778Z,-8.13
2023-03-11T03:44:17.689Z,-8.07
2023-03-11T03:46:44.964Z,-7.33
2023-03-11T03:49:12.348Z,-8.75
2023-03-11T03:51:39.342Z,-7.44
2023-03-11T03:54:20.618Z,-9.09
2023-03-11T03:56:47.536Z,-8.44
2023-03-11T03:59:14.334Z,-10.41
2023-03-11T04:01:46.954Z,-11.78
2023-03-11T04:04:13.893Z,-12.69
2023-03-11T04:06:40.727Z,-9.60
2023-03-11T04:09:07.680Z,-9.93
2023-03-11T04:11:35.348Z,-10.31
2023-03-11T04:14:04.576Z,-8.59
2023-03-11T04:16:33.534Z,-9.36
2023-03-11T04:19:05.842Z,-8.89
2023-03-11T04:21:33.833Z,-8.15
2023-03-11T04:24:01.249Z,-9.09
2023-03-11T04:26:32.419Z,-9.46
2023-03-11T04:28:59.272Z,-8.04
2023-03-11T04:31:29.041Z,-9.16
2023-03-11T04:33:56.970Z,-8.08
2023-03-11T04:36:23.855Z,-9.40
2023-03-11T04:38:50.790Z,-9.38
2023-03-11T04:41:18.075Z,-9.25
2023-03-11T04:43:45.541Z,-9.74
2023-03-11T04:46:12.490Z,-10.67
2023-03-11T04:48:40.961Z,-9.76
2023-03-11T04:51:08.440Z,-10.47
2023-03-11T04:53:35.524Z,-8.94
2023-03-11T04:56:02.422Z,-9.44
2023-03-11T04:58:30.010Z,-8.89
2023-03-11T05:00:57.026Z,-9.34
2023-03-11T05:03:24.548Z,-8.72
2023-03-11T05:05:53.132Z,-8.26
2023-03-11T05:08:20.900Z,-8.54
2023-03-11T05:10:47.522Z,-9.00
2023-03-11T05:13:14.279Z,-8.28
2023-03-11T05:15:42.583Z,-8.40
2023-03-11T05:18:10.759Z,-8.19
2023-03-11T05:20:38.902Z,-8.68
2023-03-11T05:23:06.494Z,-11.19
2023-03-11T05:25:35.650Z,-9.34
2023-03-11T05:28:03.526Z,-8.82
2023-03-11T05:30:31.854Z,-8.89
2023-03-11T05:32:58.746Z,-10.17
2023-03-11T05:35:25.816Z,-9.28
2023-03-11T05:37:53.614Z,-8.93
2023-03-11T05:40:21.454Z,-10.42
2023-03-11T05:42:48.865Z,-10.58
2023-03-11T05:45:15.617Z,-9.75
2023-03-11T05:47:45.113Z,-10.07
2023-03-11T05:50:14.062Z,-8.96
2023-03-11T05:52:42.333Z,-9.29
2023-03-11T05:55:12.214Z,-9.54
2023-03-11T05:57:40.924Z,-8.91
2023-03-11T06:00:12.427Z,-9.85
2023-03-11T06:02:46.905Z,-8.71
2023-03-11T06:05:17.186Z,-8.16
2023-03-11T06:07:45.463Z,-8.11
2023-03-11T06:10:12.873Z,-9.66
2023-03-11T06:12:40.251Z,-11.02
2023-03-11T06:17:49.338Z,-9.32
2023-03-11T06:20:17.313Z,-9.53
2023-03-11T06:22:43.948Z,-10.04
2023-03-11T06:25:10.997Z,-11.07
2023-03-11T06:27:39.812Z,-9.10
2023-03-11T06:30:08.179Z,-10.71
2023-03-11T06:32:44.094Z,-8.85
2023-03-11T06:35:11.360Z,-10.09
2023-03-11T06:37:38.774Z,-9.62
2023-03-11T06:40:07.839Z,-9.25
2023-03-11T06:42:35.516Z,-9.36
2023-03-11T06:45:03.426Z,-8.07
2023-03-11T06:47:30.474Z,-9.65
2023-03-11T06:49:57.246Z,-7.79
2023-03-11T06:52:24.076Z,-7.88
2023-03-11T06:54:50.940Z,-8.07
2023-03-11T06:57:17.621Z,-7.29
2023-03-11T06:59:46.787Z,-8.87
2023-03-11T07:02:16.510Z,-7.09
2023-03-11T07:04:43.853Z,-8.47
2023-03-11T07:07:10.653Z,-7.00
2023-03-11T07:09:37.576Z,-7.04
2023-03-11T07:12:06.866Z,-7.71
2023-03-11T07:14:36.484Z,-8.38
2023-03-11T07:17:03.084Z,-9.40
2023-03-11T07:19:37.772Z,-9.35
2023-03-11T07:22:04.414Z,-9.08
2023-03-11T07:24:31.340Z,-8.53
2023-03-11T07:26:58.120Z,-8.54
2023-03-11T07:29:24.670Z,-8.34
2023-03-11T07:31:51.393Z,-8.08
2023-03-11T07:34:18.035Z,-7.41
2023-03-11T07:36:45.639Z,-8.24
2023-03-11T07:39:17.853Z,-9.26
2023-03-11T07:41:45.199Z,-6.82
2023-03-11T07:44:13.442Z,-8.28
2023-03-11T07:46:40.191Z,-6.69
2023-03-11T07:49:07.495Z,-6.73
2023-03-11T07:51:36.216Z,-7.59
2023-03-11T07:54:04.346Z,-6.33
2023-03-11T07:56:33.510Z,-7.06
2023-03-11T07:59:01.968Z,-7.14
2023-03-11T08:01:36.148Z,-6.78
2023-03-11T08:04:09.491Z,-8.20
2023-03-11T08:06:46.628Z,-16.43
2023-03-11T08:09:24.970Z,-8.35
2023-03-11T08:11:51.818Z,-8.68
2023-03-11T08:14:18.628Z,-6.60
2023-03-11T08:16:45.270Z,-7.64
2023-03-11T08:19:12.843Z,-6.96
2023-03-11T08:21:40.123Z,-6.83
2023-03-11T08:24:07.267Z,-8.37
2023-03-11T08:26:34.167Z,-8.60
2023-03-11T08:29:00.892Z,-7.84
2023-03-11T08:31:30.482Z,-5.92
2023-03-11T08:34:03.519Z,-5.83
2023-03-11T08:36:31.397Z,-5.73
2023-03-11T08:38:58.450Z,-5.34
2023-03-11T08:41:26.046Z,-5.26
2023-03-11T08:43:52.965Z,-5.58
2023-03-11T08:46:40.415Z,-6.62
2023-03-11T08:49:08.011Z,-8.40
2023-03-11T08:51:36.338Z,-5.49
2023-03-11T08:54:04.091Z,-6.33
2023-03-11T08:56:30.813Z,-5.92
2023-03-11T08:58:57.807Z,-5.18
2023-03-11T09:01:24.616Z,-4.91
2023-03-11T09:03:51.689Z,-5.30
2023-03-11T09:06:19.084Z,-5.08
2023-03-11T09:08:46.777Z,-4.51
2023-03-11T09:11:14.988Z,-6.38
2023-03-11T09:13:43.168Z,-5.62
2023-03-11T09:16:13.826Z,-5.03
2023-03-11T09:18:40.517Z,-4.34
2023-03-11T09:21:07.425Z,-5.15
2023-03-11T09:23:34.207Z,-5.92
2023-03-11T09:26:00.844Z,-6.35
2023-03-11T09:28:27.710Z,-4.71
2023-03-11T09:30:54.454Z,-4.93
2023-03-11T09:33:21.196Z,-3.97
2023-03-11T09:35:47.884Z,-4.54
2023-03-11T09:38:14.676Z,-3.96
2023-03-11T09:41:08.324Z,-3.76
2023-03-11T09:43:48.026Z,-3.63
2023-03-11T09:46:20.645Z,-3.76
2023-03-11T09:48:59.812Z,-4.70
2023-03-11T09:51:30.954Z,-3.69
2023-03-11T09:54:04.990Z,-3.57
2023-03-11T09:56:35.115Z,-5.74
2023-03-11T09:59:06.352Z,-4.38
2023-03-11T10:01:42.616Z,-3.28
2023-03-11T10:04:34.252Z,-4.16
2023-03-11T10:07:03.276Z,-4.49
2023-03-11T10:09:43.463Z,-3.92
2023-03-11T10:12:47.499Z,-3.12
2023-03-11T10:15:40.067Z,-3.09
2023-03-11T10:18:12.500Z,-3.04
2023-03-11T10:21:00.682Z,-2.97
2023-03-11T10:23:56.802Z,-3.29
2023-03-11T10:26:31.391Z,-3.24
2023-03-11T10:29:07.553Z,-3.26
2023-03-11T10:31:47.495Z,-2.86
2023-03-11T10:34:17.064Z,-2.76
2023-03-11T10:37:03.849Z,-2.72
2023-03-11T10:39:33.198Z,-3.42
2023-03-11T10:42:02.908Z,-2.87
2023-03-11T10:44:33.978Z,-3.48
2023-03-11T10:47:01.778Z,-4.10
2023-03-11T10:49:29.166Z,-2.70
2023-03-11T10:51:57.263Z,-3.47
2023-03-11T10:54:46.184Z,-2.58
2023-03-11T10:57:26.115Z,-3.27
2023-03-11T10:59:57.510Z,-2.61
2023-03-11T11:02:49.511Z,-3.08
2023-03-11T11:05:19.054Z,-2.56
2023-03-11T11:07:51.286Z,-2.50
2023-03-11T11:10:24.271Z,-2.73
2023-03-11T11:12:56.370Z,-2.44
2023-03-11T11:15:31.284Z,-2.56
2023-03-11T11:18:01.066Z,-3.41
2023-03-11T11:20:31.918Z,-4.60
2023-03-11T11:23:01.803Z,-2.41
2023-03-11T11:25:33.703Z,-2.58
2023-03-11T11:28:15.680Z,-2.71
2023-03-11T11:31:03.880Z,-2.23
2023-03-11T11:33:54.908Z,-2.88
2023-03-11T11:36:30.108Z,-2.43
2023-03-11T11:38:59.075Z,-3.74
2023-03-11T11:41:29.065Z,-2.81
2023-03-11T11:44:03.653Z,-2.25
2023-03-11T11:46:40.603Z,-1.77
2023-03-11T11:49:24.159Z,-2.85
2023-03-11T11:52:08.969Z,-1.85
2023-03-11T11:54:53.785Z,-1.68
2023-03-11T11:57:22.216Z,-3.08
2023-03-11T11:59:49.010Z,-1.53
2023-03-11T12:02:50.016Z,-1.47
2023-03-11T12:05:29.315Z,-1.82
2023-03-11T12:08:11.300Z,-2.41
2023-03-11T12:11:01.460Z,-1.83
2023-03-11T12:13:50.456Z,-1.30
2023-03-11T12:16:47.730Z,-2.10
2023-03-11T12:19:26.906Z,-1.28
2023-03-11T12:22:12.498Z,-1.33
2023-03-11T12:24:55.398Z,-1.26
2023-03-11T12:27:44.233Z,-1.42
2023-03-11T12:30:19.277Z,-1.61
2023-03-11T12:32:57.107Z,-1.41
2023-03-11T12:35:31.239Z,-2.31
2023-03-11T12:38:01.189Z,-1.43
2023-03-11T12:40:48.519Z,-1.49
2023-03-11T12:43:36.316Z,-1.32
2023-03-11T12:46:05.341Z,-2.06
2023-03-11T12:48:50.459Z,-1.28
2023-03-11T12:51:37.629Z,-1.27
2023-03-11T12:54:46.711Z,-1.22
2023-03-11T12:57:16.092Z,-1.18
2023-03-11T13:00:18.306Z,-1.24
2023-03-11T13:03:19.204Z,-1.19
2023-03-11T13:06:00.758Z,-2.22
2023-03-11T13:08:31.461Z,-2.12
2023-03-11T13:10:58.469Z,-1.31
2023-03-11T13:13:25.120Z,-1.43
2023-03-11T13:15:52.814Z,-2.77
2023-03-11T13:18:28.107Z,-1.26
2023-03-11T13:20:59.336Z,-2.15
2023-03-11T13:23:40.613Z,-1.46
2023-03-11T13:26:16.946Z,-1.94
2023-03-11T13:28:47.284Z,-1.12
2023-03-11T13:31:38.415Z,-1.69
2023-03-11T13:34:15.710Z,-2.98
2023-03-11T13:37:09.680Z,-0.97
2023-03-11T13:39:56.217Z,-1.81
2023-03-11T13:42:42.529Z,-1.04
2023-03-11T13:45:36.423Z,-2.09
2023-03-11T13:48:20.072Z,-1.55
2023-03-11T13:51:13.854Z,-1.72
2023-03-11T13:53:56.551Z,-1.35
2023-03-11T13:56:27.937Z,-1.16
2023-03-11T13:58:54.880Z,-0.93
2023-03-11T14:01:21.639Z,-1.76
2023-03-11T14:03:48.567Z,-0.81
2023-03-11T14:06:19.653Z,-3.41
2023-03-11T14:08:57.664Z,-2.06
2023-03-11T14:11:29.452Z,-0.96
2023-03-11T14:13:56.638Z,-1.44
2023-03-11T14:16:36.255Z,-5.01
2023-03-11T14:19:13.845Z,-0.84
2023-03-11T14:21:45.174Z,-1.96
2023-03-11T14:24:26.331Z,-3.67
2023-03-11T14:26:56.234Z,-0.62
2023-03-11T14:29:31.755Z,-0.57
2023-03-11T14:31:58.636Z,-1.71
2023-03-11T14:34:28.839Z,-0.79
2023-03-11T14:37:00.461Z,-1.14
2023-03-11T14:39:33.029Z,-1.19
2023-03-11T14:42:12.493Z,-1.01
2023-03-11T14:44:43.640Z,-1.54
2023-03-11T14:47:40.053Z,-0.75
2023-03-11T14:50:14.645Z,-0.53
2023-03-11T14:53:07.320Z,-0.39
2023-03-11T14:55:40.622Z,-0.61
2023-03-11T14:58:18.968Z,-1.34
2023-03-11T15:01:05.460Z,-0.35
2023-03-11T15:03:45.414Z,-1.56
2023-03-11T15:06:22.207Z,-2.04
2023-03-11T15:09:02.069Z,-0.89
2023-03-11T15:11:29.749Z,-0.37
2023-03-11T15:14:17.480Z,-1.39
2023-03-11T15:16:44.926Z,-1.40
2023-03-11T15:19:40.724Z,-1.44
2023-03-11T15:22:28.775Z,-0.62
2023-03-11T15:24:58.846Z,-0.59
2023-03-11T15:27:29.427Z,-0.59
2023-03-11T15:29:56.850Z,-1.10
2023-03-11T15:32:24.945Z,-0.84
2023-03-11T15:35:23.003Z,-0.94
2023-03-11T15:38:12.430Z,-1.19
2023-03-11T15:40:52.339Z,-1.61
2023-03-11T15:43:27.604Z,-1.49
2023-03-11T15:45:56.761Z,-2.21
2023-03-11T15:48:24.495Z,-1.74
2023-03-11T15:50:55.040Z,-1.40
2023-03-11T15:53:24.435Z,-1.20
2023-03-11T15:55:53.002Z,-1.35
2023-03-11T15:58:21.362Z,-1.06
2023-03-11T16:00:50.925Z,-0.91
2023-03-11T16:03:18.227Z,-2.10
2023-03-11T16:05:45.584Z,-1.83
2023-03-11T16:08:13.930Z,-1.52
2023-03-11T16:10:41.318Z,-0.99
2023-03-11T16:13:14.665Z,-0.77
2023-03-11T16:15:42.831Z,-0.70
2023-03-11T16:18:10.050Z,-0.98
2023-03-11T16:20:47.901Z,-0.85
2023-03-11T16:23:23.811Z,-1.23
2023-03-11T16:25:54.488Z,-1.27
2023-03-11T16:28:21.210Z,-3.52
2023-03-11T16:30:50.049Z,-1.24
2023-03-11T16:33:17.193Z,-2.48
2023-03-11T16:35:44.012Z,-2.80
2023-03-11T16:38:10.687Z,-2.56
2023-03-11T16:40:37.338Z,-1.33
2023-03-11T16:43:07.055Z,-1.22
2023-03-11T16:45:33.901Z,-1.05
2023-03-11T16:48:05.540Z,-0.85
2023-03-11T16:50:34.224Z,-0.98
2023-03-11T16:53:01.704Z,-1.55
2023-03-11T16:55:28.513Z,-1.04
2023-03-11T16:57:57.387Z,-2.11
2023-03-11T17:00:29.080Z,-0.98
2023-03-11T17:02:55.724Z,-1.52
2023-03-11T17:05:22.333Z,-2.60
2023-03-11T17:07:53.415Z,-1.37
2023-03-11T17:10:20.341Z,-1.34
2023-03-11T17:12:46.891Z,-2.48
2023-03-11T17:15:13.597Z,-2.20
2023-03-11T17:17:40.332Z,-2.42
2023-03-11T17:20:09.993Z,-1.75
2023-03-11T17:22:36.776Z,-1.72
2023-03-11T17:25:03.589Z,-3.19
2023-03-11T17:27:32.527Z,-1.54
2023-03-11T17:30:01.151Z,-1.88
2023-03-11T17:32:28.819Z,-2.07
2023-03-11T17:34:55.583Z,-2.98
2023-03-11T17:37:22.665Z,-2.51
2023-03-11T17:39:49.634Z,-2.47
2023-03-11T17:42:17.045Z,-2.79
2023-03-11T17:44:51.497Z,-3.27
2023-03-11T17:47:20.147Z,-2.64
2023-03-11T17:49:48.027Z,-2.81
2023-03-11T17:52:14.736Z,-3.98
2023-03-11T17:54:41.322Z,-2.24
2023-03-11T17:57:08.013Z,-2.11
2023-03-11T17:59:34.583Z,-3.26
2023-03-11T18:02:01.366Z,-2.35
2023-03-11T18:04:28.441Z,-3.27
2023-03-11T18:06:55.268Z,-1.98
2023-03-11T18:09:22.632Z,-2.28
2023-03-11T18:11:49.276Z,-1.80
2023-03-11T18:14:16.333Z,-2.30
2023-03-11T18:16:43.031Z,-2.01
2023-03-11T18:19:09.637Z,-1.85
2023-03-11T18:21:36.245Z,-2.26
2023-03-11T18:24:02.845Z,-2.06
2023-03-11T18:26:30.493Z,-3.26
2023-03-11T18:28:59.324Z,-2.15
2023-03-11T18:31:27.672Z,-2.52
2023-03-11T18:33:57.234Z,-2.15
2023-03-11T18:36:27.285Z,-2.20
2023-03-11T18:38:55.143Z,-2.61
2023-03-11T18:41:21.802Z,-2.32
2023-03-11T18:43:53.511Z,-3.04
2023-03-11T18:46:20.461Z,-3.16
2023-03-11T18:48:47.041Z,-2.43
2023-03-11T18:51:14.127Z,-2.98
2023-03-11T18:53:42.814Z,-2.02
2023-03-11T18:56:13.084Z,-2.73
2023-03-11T18:58:39.997Z,-2.00
2023-03-11T19:01:07.871Z,-1.93
2023-03-11T19:03:35.111Z,-2.08
2023-03-11T19:06:02.145Z,-2.27
2023-03-11T19:08:28.980Z,-3.55
2023-03-11T19:10:55.686Z,-2.36
2023-03-11T19:13:22.511Z,-2.55
2023-03-11T19:15:49.225Z,-2.68
2023-03-11T19:18:16.102Z,-2.37
2023-03-11T19:20:42.759Z,-2.55
2023-03-11T19:23:09.700Z,-2.93
2023-03-11T19:25:36.409Z,-3.00
2023-03-11T19:28:03.230Z,-2.63
2023-03-11T19:30:29.890Z,-3.07
2023-03-11T19:32:56.591Z,-2.83
2023-03-11T19:35:23.973Z,-2.93
2023-03-11T19:37:50.888Z,-2.95
2023-03-11T19:40:17.894Z,-2.90
2023-03-11T19:42:44.520Z,-2.97
2023-03-11T19:45:11.415Z,-3.16
2023-03-11T19:47:38.407Z,-3.51
2023-03-11T19:50:05.598Z,-3.42
2023-03-11T19:52:34.575Z,-3.34
2023-03-11T19:55:01.500Z,-3.85
2023-03-11T19:57:28.052Z,-3.15
2023-03-11T19:59:55.965Z,-3.03
2023-03-11T20:02:22.764Z,-3.27
2023-03-11T20:04:49.598Z,-5.04
2023-03-11T20:07:16.202Z,-4.40
2023-03-11T20:09:42.889Z,-2.97
2023-03-11T20:12:09.756Z,-2.59
2023-03-11T20:14:36.358Z,-2.69
2023-03-11T20:17:02.960Z,-2.83
2023-03-11T20:19:29.668Z,-2.86
2023-03-11T20:21:56.381Z,-3.02
2023-03-11T20:24:23.061Z,-2.63
2023-03-11T20:26:51.260Z,-2.83
2023-03-11T20:29:18.380Z,-3.22
2023-03-11T20:31:45.410Z,-3.26
2023-03-11T20:34:12.738Z,-4.17
2023-03-11T20:36:39.718Z,-2.69
2023-03-11T20:39:10.111Z,-3.77
2023-03-11T20:41:39.560Z,-2.36
2023-03-11T20:44:08.127Z,-3.55
2023-03-11T20:46:35.103Z,-4.11
2023-03-11T20:49:02.689Z,-3.95
2023-03-11T20:51:29.448Z,-2.80
2023-03-11T20:53:55.999Z,-2.66
2023-03-11T20:56:25.290Z,-2.53
2023-03-11T20:58:53.172Z,-2.67
2023-03-11T21:01:22.965Z,-3.09
2023-03-11T21:03:52.453Z,-2.80
2023-03-11T21:06:25.320Z,-3.40
2023-03-11T21:08:54.441Z,-3.58
2023-03-11T21:11:21.623Z,-2.97
2023-03-11T21:13:48.443Z,-2.89
2023-03-11T21:16:15.684Z,-3.21
2023-03-11T21:18:44.329Z,-3.26
2023-03-11T21:21:12.658Z,-3.48
2023-03-11T21:23:40.821Z,-3.38
2023-03-11T21:26:08.012Z,-3.30
2023-03-11T21:28:35.376Z,-3.21
2023-03-11T21:31:07.219Z,-3.65
2023-03-11T21:33:34.061Z,-3.16
2023-03-11T21:36:00.930Z,-3.51
2023-03-11T21:38:28.641Z,-4.03
2023-03-11T21:41:06.525Z,-3.35
2023-03-11T21:43:33.245Z,-3.09
2023-03-11T21:45:59.988Z,-3.38
2023-03-11T21:48:26.894Z,-3.17
2023-03-11T21:50:53.646Z,-3.47
2023-03-11T21:53:20.422Z,-3.33
2023-03-11T21:55:47.407Z,-3.52
2023-03-11T21:58:14.941Z,-4.02
2023-03-11T22:00:41.848Z,-3.64
2023-03-11T22:03:08.588Z,-7.12
2023-03-11T22:05:35.486Z,-5.49
2023-03-11T22:08:02.357Z,-4.21
2023-03-11T22:10:30.855Z,-5.12
2023-03-11T22:12:57.556Z,-4.26
2023-03-11T22:15:24.622Z,-4.20
2023-03-11T22:17:51.319Z,-5.35
2023-03-11T22:20:18.054Z,-5.76
2023-03-11T22:22:44.650Z,-5.58
2023-03-11T22:25:11.236Z,-5.44
2023-03-11T22:27:38.619Z,-5.18
2023-03-11T22:30:06.243Z,-5.15
2023-03-11T22:32:34.188Z,-4.95
2023-03-11T22:35:01.086Z,-4.50
2023-03-11T22:37:28.025Z,-4.46
2023-03-11T22:39:54.640Z,-5.38
2023-03-11T22:42:21.347Z,-4.22
2023-03-11T22:44:48.091Z,-5.43
2023-03-11T22:47:14.783Z,-4.38
2023-03-11T22:49:42.528Z,-4.30
2023-03-11T22:52:09.304Z,-4.18
2023-03-11T22:54:37.477Z,-4.17
2023-03-11T22:57:04.190Z,-4.70
2023-03-11T22:59:31.001Z,-4.27
2023-03-11T23:01:57.741Z,-3.92
2023-03-11T23:04:24.614Z,-3.87
2023-03-11T23:06:54.321Z,-4.14
2023-03-11T23:09:22.122Z,-3.69
2023-03-11T23:11:52.562Z,-3.50
2023-03-11T23:14:25.657Z,-3.57
2023-03-11T23:16:54.693Z,-3.68
2023-03-11T23:19:21.350Z,-4.07
2023-03-11T23:21:48.138Z,-3.55
2023-03-11T23:24:14.825Z,-4.86
2023-03-11T23:26:41.438Z,-4.19
2023-03-11T23:29:08.071Z,-4.83
2023-03-11T23:31:36.349Z,-3.96
2023-03-11T23:34:02.929Z,-4.36
2023-03-11T23:36:30.798Z,-4.40
2023-03-11T23:38:58.304Z,-4.32
2023-03-11T23:41:25.042Z,-4.08
2023-03-11T23:43:51.750Z,-4.12
2023-03-11T23:46:18.455Z,-4.04
2023-03-11T23:48:45.352Z,-4.38
2023-03-11T23:51:12.275Z,-5.13
2023-03-11T23:53:39.189Z,-4.65
2023-03-11T23:56:11.272Z,-5.07
2023-03-11T23:58:38.199Z,-5.25
